sensor_id;sensor_type;location;lat;lon;timestamp;P1;durP1;ratioP1;P2;durP2;ratioP2
48647;SDS011;34437;-33.956;151.076;2023-02-04T00:01:55;1.88;;;1.00;;
48647;SDS011;34437;-33.956;151.076;2023-02-04T00:04:18;1.92;;;1.00;;
48647;SDS011;34437;-33.956;151.076;2023-02-04T00:06:40;1.75;;;1.05;;
48647;SDS011;34437;-33.956;151.076;2023-02-04T00:09:03;1.10;;;0.90;;
48647;SDS011;34437;-33.956;151.076;2023-02-04T00:11:26;1.63;;;0.93;;
48647;SDS011;34437;-33.956;151.076;2023-02-04T00:13:48;1.00;;;0.77;;
48647;SDS011;34437;-33.956;151.076;2023-02-04T00:16:11;1.27;;;0.98;;
48647;SDS011;34437;-33.956;151.076;2023-02-04T00:18:33;1.63;;;0.90;;
48647;SDS011;34437;-33.956;151.076;2023-02-04T00:20:56;1.70;;;0.77;;
48647;SDS011;34437;-33.956;151.076;2023-02-04T00:23:19;1.05;;;0.70;;
48647;SDS011;34437;-33.956;151.076;2023-02-04T00:25:41;1.15;;;0.73;;
48647;SDS011;34437;-33.956;151.076;2023-02-04T00:28:04;1.38;;;0.95;;
48647;SDS011;34437;-33.956;151.076;2023-02-04T00:30:27;1.20;;;1.00;;
48647;SDS011;34437;-33.956;151.076;2023-02-04T00:32:49;2.67;;;0.85;;
48647;SDS011;34437;-33.956;151.076;2023-02-04T00:35:14;3.67;;;0.63;;
48647;SDS011;34437;-33.956;151.076;2023-02-04T00:37:37;1.67;;;0.60;;
48647;SDS011;34437;-33.956;151.076;2023-02-04T00:39:59;3.42;;;0.70;;
48647;SDS011;34437;-33.956;151.076;2023-02-04T00:42:22;6.93;;;5.03;;
48647;SDS011;34437;-33.956;151.076;2023-02-04T00:44:45;6.30;;;5.70;;
48647;SDS011;34437;-33.956;151.076;2023-02-04T00:47:07;7.95;;;7.22;;
48647;SDS011;34437;-33.956;151.076;2023-02-04T00:49:30;8.13;;;7.32;;
48647;SDS011;34437;-33.956;151.076;2023-02-04T00:51:56;7.75;;;6.78;;
48647;SDS011;34437;-33.956;151.076;2023-02-04T00:54:18;6.88;;;6.18;;
48647;SDS011;34437;-33.956;151.076;2023-02-04T00:56:42;6.37;;;5.30;;
48647;SDS011;34437;-33.956;151.076;2023-02-04T00:59:05;5.25;;;4.68;;
48647;SDS011;34437;-33.956;151.076;2023-02-04T01:01:28;4.43;;;3.70;;
48647;SDS011;34437;-33.956;151.076;2023-02-04T01:03:51;4.55;;;3.60;;
48647;SDS011;34437;-33.956;151.076;2023-02-04T01:06:13;3.90;;;3.00;;
48647;SDS011;34437;-33.956;151.076;2023-02-04T01:08:36;3.67;;;2.58;;
48647;SDS011;34437;-33.956;151.076;2023-02-04T01:10:58;4.03;;;2.40;;
48647;SDS011;34437;-33.956;151.076;2023-02-04T01:13:21;5.05;;;2.25;;
48647;SDS011;34437;-33.956;151.076;2023-02-04T01:15:44;3.25;;;1.70;;
48647;SDS011;34437;-33.956;151.076;2023-02-04T01:18:06;2.92;;;1.58;;
48647;SDS011;34437;-33.956;151.076;2023-02-04T01:20:29;1.77;;;1.42;;
48647;SDS011;34437;-33.956;151.076;2023-02-04T01:22:52;2.38;;;1.67;;
48647;SDS011;34437;-33.956;151.076;2023-02-04T01:25:14;1.50;;;1.40;;
48647;SDS011;34437;-33.956;151.076;2023-02-04T01:27:37;2.40;;;1.25;;
48647;SDS011;34437;-33.956;151.076;2023-02-04T01:29:59;1.50;;;1.20;;
48647;SDS011;34437;-33.956;151.076;2023-02-04T01:32:23;1.30;;;0.85;;
48647;SDS011;34437;-33.956;151.076;2023-02-04T01:34:45;0.88;;;0.80;;
48647;SDS011;34437;-33.956;151.076;2023-02-04T01:37:08;6.00;;;2.15;;
48647;SDS011;34437;-33.956;151.076;2023-02-04T01:39:31;2.80;;;0.82;;
48647;SDS011;34437;-33.956;151.076;2023-02-04T01:41:53;2.30;;;0.95;;
48647;SDS011;34437;-33.956;151.076;2023-02-04T01:44:17;1.27;;;0.60;;
48647;SDS011;34437;-33.956;151.076;2023-02-04T01:46:40;1.10;;;0.75;;
48647;SDS011;34437;-33.956;151.076;2023-02-04T01:49:04;4.88;;;1.27;;
48647;SDS011;34437;-33.956;151.076;2023-02-04T01:51:27;9.68;;;1.65;;
48647;SDS011;34437;-33.956;151.076;2023-02-04T01:56:16;2.97;;;0.80;;
48647;SDS011;34437;-33.956;151.076;2023-02-04T01:58:42;5.63;;;1.00;;
48647;SDS011;34437;-33.956;151.076;2023-02-04T02:01:10;2.30;;;0.65;;
48647;SDS011;34437;-33.956;151.076;2023-02-04T02:03:35;3.40;;;0.77;;
48647;SDS011;34437;-33.956;151.076;2023-02-04T02:05:57;7.45;;;1.38;;
48647;SDS011;34437;-33.956;151.076;2023-02-04T02:08:20;4.55;;;1.00;;
48647;SDS011;34437;-33.956;151.076;2023-02-04T02:10:44;4.60;;;1.43;;
48647;SDS011;34437;-33.956;151.076;2023-02-04T02:13:09;6.50;;;1.88;;
48647;SDS011;34437;-33.956;151.076;2023-02-04T02:15:34;4.18;;;1.60;;
48647;SDS011;34437;-33.956;151.076;2023-02-04T02:17:56;5.80;;;1.67;;
48647;SDS011;34437;-33.956;151.076;2023-02-04T02:20:20;7.45;;;1.73;;
48647;SDS011;34437;-33.956;151.076;2023-02-04T02:23:00;6.07;;;1.73;;
48647;SDS011;34437;-33.956;151.076;2023-02-04T02:25:27;8.07;;;1.50;;
48647;SDS011;34437;-33.956;151.076;2023-02-04T02:27:49;7.40;;;1.90;;
48647;SDS011;34437;-33.956;151.076;2023-02-04T02:30:12;5.05;;;1.63;;
48647;SDS011;34437;-33.956;151.076;2023-02-04T02:32:39;10.15;;;2.10;;
48647;SDS011;34437;-33.956;151.076;2023-02-04T02:35:02;8.07;;;1.88;;
48647;SDS011;34437;-33.956;151.076;2023-02-04T02:37:25;6.85;;;1.50;;
48647;SDS011;34437;-33.956;151.076;2023-02-04T02:39:48;3.65;;;1.55;;
48647;SDS011;34437;-33.956;151.076;2023-02-04T02:42:14;4.80;;;1.83;;
48647;SDS011;34437;-33.956;151.076;2023-02-04T02:44:39;6.40;;;1.52;;
48647;SDS011;34437;-33.956;151.076;2023-02-04T02:47:02;3.90;;;1.30;;
48647;SDS011;34437;-33.956;151.076;2023-02-04T02:49:24;7.80;;;1.38;;
48647;SDS011;34437;-33.956;151.076;2023-02-04T02:51:48;3.72;;;1.20;;
48647;SDS011;34437;-33.956;151.076;2023-02-04T02:54:13;3.70;;;1.45;;
48647;SDS011;34437;-33.956;151.076;2023-02-04T02:56:47;7.72;;;2.40;;
48647;SDS011;34437;-33.956;151.076;2023-02-04T02:59:13;6.95;;;1.30;;
48647;SDS011;34437;-33.956;151.076;2023-02-04T03:01:37;10.15;;;2.10;;
48647;SDS011;34437;-33.956;151.076;2023-02-04T03:03:59;7.88;;;1.50;;
48647;SDS011;34437;-33.956;151.076;2023-02-04T03:06:23;10.20;;;2.80;;
48647;SDS011;34437;-33.956;151.076;2023-02-04T03:08:47;8.20;;;1.55;;
48647;SDS011;34437;-33.956;151.076;2023-02-04T03:11:15;8.52;;;1.73;;
48647;SDS011;34437;-33.956;151.076;2023-02-04T03:13:37;5.78;;;1.40;;
48647;SDS011;34437;-33.956;151.076;2023-02-04T03:16:00;5.55;;;2.08;;
48647;SDS011;34437;-33.956;151.076;2023-02-04T03:18:23;7.53;;;1.80;;
48647;SDS011;34437;-33.956;151.076;2023-02-04T03:20:46;10.88;;;2.42;;
48647;SDS011;34437;-33.956;151.076;2023-02-04T03:23:11;3.75;;;1.30;;
48647;SDS011;34437;-33.956;151.076;2023-02-04T03:25:33;4.57;;;1.42;;
48647;SDS011;34437;-33.956;151.076;2023-02-04T03:27:56;4.32;;;1.55;;
48647;SDS011;34437;-33.956;151.076;2023-02-04T03:30:20;3.25;;;1.35;;
48647;SDS011;34437;-33.956;151.076;2023-02-04T03:32:42;4.10;;;1.45;;
48647;SDS011;34437;-33.956;151.076;2023-02-04T03:35:05;4.75;;;1.45;;
48647;SDS011;34437;-33.956;151.076;2023-02-04T03:37:27;2.40;;;1.23;;
48647;SDS011;34437;-33.956;151.076;2023-02-04T03:39:50;2.65;;;1.17;;
48647;SDS011;34437;-33.956;151.076;2023-02-04T03:42:12;1.60;;;0.90;;
48647;SDS011;34437;-33.956;151.076;2023-02-04T03:44:35;3.58;;;1.10;;
48647;SDS011;34437;-33.956;151.076;2023-02-04T03:46:57;2.58;;;0.80;;
48647;SDS011;34437;-33.956;151.076;2023-02-04T03:49:23;4.80;;;1.20;;
48647;SDS011;34437;-33.956;151.076;2023-02-04T03:51:45;1.80;;;1.10;;
48647;SDS011;34437;-33.956;151.076;2023-02-04T03:54:08;1.13;;;0.80;;
48647;SDS011;34437;-33.956;151.076;2023-02-04T03:56:31;1.80;;;1.00;;
48647;SDS011;34437;-33.956;151.076;2023-02-04T03:58:53;2.75;;;0.90;;
48647;SDS011;34437;-33.956;151.076;2023-02-04T04:01:16;2.67;;;0.82;;
48647;SDS011;34437;-33.956;151.076;2023-02-04T04:03:38;3.05;;;1.17;;
48647;SDS011;34437;-33.956;151.076;2023-02-04T04:06:00;0.82;;;0.60;;
48647;SDS011;34437;-33.956;151.076;2023-02-04T04:08:26;2.55;;;0.70;;
48647;SDS011;34437;-33.956;151.076;2023-02-04T04:10:48;2.53;;;0.60;;
48647;SDS011;34437;-33.956;151.076;2023-02-04T04:13:10;0.52;;;0.40;;
48647;SDS011;34437;-33.956;151.076;2023-02-04T04:15:33;1.08;;;0.47;;
48647;SDS011;34437;-33.956;151.076;2023-02-04T04:17:55;0.85;;;0.40;;
48647;SDS011;34437;-33.956;151.076;2023-02-04T04:20:17;2.38;;;0.57;;
48647;SDS011;34437;-33.956;151.076;2023-02-04T04:22:40;1.38;;;0.82;;
48647;SDS011;34437;-33.956;151.076;2023-02-04T04:25:02;0.70;;;0.43;;
48647;SDS011;34437;-33.956;151.076;2023-02-04T04:27:25;1.10;;;0.70;;
48647;SDS011;34437;-33.956;151.076;2023-02-04T04:29:49;1.10;;;0.73;;
48647;SDS011;34437;-33.956;151.076;2023-02-04T04:32:12;1.67;;;0.57;;
48647;SDS011;34437;-33.956;151.076;2023-02-04T04:34:35;1.02;;;0.60;;
48647;SDS011;34437;-33.956;151.076;2023-02-04T04:36:57;1.20;;;0.55;;
48647;SDS011;34437;-33.956;151.076;2023-02-04T04:39:19;0.38;;;0.32;;
48647;SDS011;34437;-33.956;151.076;2023-02-04T04:41:42;1.08;;;0.43;;
48647;SDS011;34437;-33.956;151.076;2023-02-04T04:44:04;0.68;;;0.50;;
48647;SDS011;34437;-33.956;151.076;2023-02-04T04:46:27;1.63;;;0.45;;
48647;SDS011;34437;-33.956;151.076;2023-02-04T04:48:49;0.40;;;0.30;;
48647;SDS011;34437;-33.956;151.076;2023-02-04T04:51:12;0.38;;;0.22;;
48647;SDS011;34437;-33.956;151.076;2023-02-04T04:53:35;0.95;;;0.50;;
48647;SDS011;34437;-33.956;151.076;2023-02-04T04:55:57;1.75;;;0.38;;
48647;SDS011;34437;-33.956;151.076;2023-02-04T04:58:20;0.32;;;0.20;;
48647;SDS011;34437;-33.956;151.076;2023-02-04T05:00:42;0.98;;;0.40;;
48647;SDS011;34437;-33.956;151.076;2023-02-04T05:03:04;0.73;;;0.47;;
48647;SDS011;34437;-33.956;151.076;2023-02-04T05:05:27;0.55;;;0.28;;
48647;SDS011;34437;-33.956;151.076;2023-02-04T05:07:49;0.55;;;0.45;;
48647;SDS011;34437;-33.956;151.076;2023-02-04T05:10:13;0.30;;;0.30;;
48647;SDS011;34437;-33.956;151.076;2023-02-04T05:12:36;0.40;;;0.40;;
48647;SDS011;34437;-33.956;151.076;2023-02-04T05:14:58;0.55;;;0.30;;
48647;SDS011;34437;-33.956;151.076;2023-02-04T05:17:21;0.40;;;0.30;;
48647;SDS011;34437;-33.956;151.076;2023-02-04T05:19:43;0.32;;;0.32;;
48647;SDS011;34437;-33.956;151.076;2023-02-04T05:22:05;0.75;;;0.40;;
48647;SDS011;34437;-33.956;151.076;2023-02-04T05:24:28;0.28;;;0.25;;
48647;SDS011;34437;-33.956;151.076;2023-02-04T05:26:50;0.30;;;0.30;;
48647;SDS011;34437;-33.956;151.076;2023-02-04T05:29:12;0.30;;;0.20;;
48647;SDS011;34437;-33.956;151.076;2023-02-04T05:31:35;0.55;;;0.40;;
48647;SDS011;34437;-33.956;151.076;2023-02-04T05:33:57;0.20;;;0.20;;
48647;SDS011;34437;-33.956;151.076;2023-02-04T05:36:20;1.27;;;0.50;;
48647;SDS011;34437;-33.956;151.076;2023-02-04T05:38:42;0.30;;;0.30;;
48647;SDS011;34437;-33.956;151.076;2023-02-04T05:41:05;0.22;;;0.20;;
48647;SDS011;34437;-33.956;151.076;2023-02-04T05:43:27;0.28;;;0.20;;
48647;SDS011;34437;-33.956;151.076;2023-02-04T05:45:50;0.35;;;0.20;;
48647;SDS011;34437;-33.956;151.076;2023-02-04T05:48:12;0.65;;;0.25;;
48647;SDS011;34437;-33.956;151.076;2023-02-04T05:50:35;0.60;;;0.40;;
48647;SDS011;34437;-33.956;151.076;2023-02-04T05:52:57;0.40;;;0.30;;
48647;SDS011;34437;-33.956;151.076;2023-02-04T05:55:20;0.20;;;0.20;;
48647;SDS011;34437;-33.956;151.076;2023-02-04T05:57:42;0.38;;;0.30;;
48647;SDS011;34437;-33.956;151.076;2023-02-04T06:00:05;1.95;;;0.57;;
48647;SDS011;34437;-33.956;151.076;2023-02-04T06:02:31;1.02;;;0.30;;
48647;SDS011;34437;-33.956;151.076;2023-02-04T06:04:54;0.20;;;0.20;;
48647;SDS011;34437;-33.956;151.076;2023-02-04T06:07:16;0.25;;;0.25;;
48647;SDS011;34437;-33.956;151.076;2023-02-04T06:09:39;0.35;;;0.20;;
48647;SDS011;34437;-33.956;151.076;2023-02-04T06:12:02;1.27;;;0.30;;
48647;SDS011;34437;-33.956;151.076;2023-02-04T06:14:25;0.23;;;0.20;;
48647;SDS011;34437;-33.956;151.076;2023-02-04T06:16:47;0.20;;;0.20;;
48647;SDS011;34437;-33.956;151.076;2023-02-04T06:19:09;0.43;;;0.30;;
48647;SDS011;34437;-33.956;151.076;2023-02-04T06:23:55;0.22;;;0.22;;
48647;SDS011;34437;-33.956;151.076;2023-02-04T06:26:17;0.30;;;0.30;;
48647;SDS011;34437;-33.956;151.076;2023-02-04T06:28:40;1.02;;;0.45;;
48647;SDS011;34437;-33.956;151.076;2023-02-04T06:31:02;0.45;;;0.30;;
48647;SDS011;34437;-33.956;151.076;2023-02-04T06:33:25;0.63;;;0.30;;
48647;SDS011;34437;-33.956;151.076;2023-02-04T06:35:47;0.60;;;0.35;;
48647;SDS011;34437;-33.956;151.076;2023-02-04T06:38:10;0.90;;;0.30;;
48647;SDS011;34437;-33.956;151.076;2023-02-04T06:40:32;0.68;;;0.30;;
48647;SDS011;34437;-33.956;151.076;2023-02-04T06:42:54;2.90;;;0.85;;
48647;SDS011;34437;-33.956;151.076;2023-02-04T06:45:17;3.20;;;2.15;;
48647;SDS011;34437;-33.956;151.076;2023-02-04T06:47:39;5.50;;;3.05;;
48647;SDS011;34437;-33.956;151.076;2023-02-04T06:50:02;4.30;;;3.15;;
48647;SDS011;34437;-33.956;151.076;2023-02-04T06:52:24;4.38;;;3.70;;
48647;SDS011;34437;-33.956;151.076;2023-02-04T06:54:46;5.45;;;3.97;;
48647;SDS011;34437;-33.956;151.076;2023-02-04T06:57:09;5.10;;;3.65;;
48647;SDS011;34437;-33.956;151.076;2023-02-04T06:59:32;6.70;;;3.90;;
48647;SDS011;34437;-33.956;151.076;2023-02-04T07:04:17;5.90;;;3.38;;
48647;SDS011;34437;-33.956;151.076;2023-02-04T07:06:39;5.82;;;3.33;;
48647;SDS011;34437;-33.956;151.076;2023-02-04T07:09:02;4.68;;;3.22;;
48647;SDS011;34437;-33.956;151.076;2023-02-04T07:11:24;4.63;;;2.72;;
48647;SDS011;34437;-33.956;151.076;2023-02-04T07:13:47;4.03;;;2.50;;
48647;SDS011;34437;-33.956;151.076;2023-02-04T07:16:09;4.35;;;2.30;;
48647;SDS011;34437;-33.956;151.076;2023-02-04T07:18:33;4.20;;;2.60;;
48647;SDS011;34437;-33.956;151.076;2023-02-04T07:20:55;3.38;;;2.05;;
48647;SDS011;34437;-33.956;151.076;2023-02-04T07:23:17;3.28;;;1.95;;
48647;SDS011;34437;-33.956;151.076;2023-02-04T07:25:40;2.78;;;1.73;;
48647;SDS011;34437;-33.956;151.076;2023-02-04T07:28:04;3.70;;;2.10;;
48647;SDS011;34437;-33.956;151.076;2023-02-04T07:30:26;3.38;;;1.70;;
48647;SDS011;34437;-33.956;151.076;2023-02-04T07:32:48;3.47;;;1.52;;
48647;SDS011;34437;-33.956;151.076;2023-02-04T07:35:11;2.33;;;1.50;;
48647;SDS011;34437;-33.956;151.076;2023-02-04T07:37:33;2.45;;;1.52;;
48647;SDS011;34437;-33.956;151.076;2023-02-04T07:39:56;3.80;;;1.70;;
48647;SDS011;34437;-33.956;151.076;2023-02-04T07:42:18;2.40;;;1.25;;
48647;SDS011;34437;-33.956;151.076;2023-02-04T07:44:41;2.25;;;1.38;;
48647;SDS011;34437;-33.956;151.076;2023-02-04T07:47:03;2.05;;;1.17;;
48647;SDS011;34437;-33.956;151.076;2023-02-04T07:49:26;1.23;;;0.98;;
48647;SDS011;34437;-33.956;151.076;2023-02-04T07:51:48;1.70;;;1.07;;
48647;SDS011;34437;-33.956;151.076;2023-02-04T07:54:11;1.45;;;0.82;;
48647;SDS011;34437;-33.956;151.076;2023-02-04T07:56:33;2.28;;;1.10;;
48647;SDS011;34437;-33.956;151.076;2023-02-04T07:58:55;1.98;;;1.05;;
48647;SDS011;34437;-33.956;151.076;2023-02-04T08:01:18;1.98;;;0.95;;
48647;SDS011;34437;-33.956;151.076;2023-02-04T08:03:40;1.45;;;0.85;;
48647;SDS011;34437;-33.956;151.076;2023-02-04T08:06:03;1.13;;;0.70;;
48647;SDS011;34437;-33.956;151.076;2023-02-04T08:08:25;1.42;;;0.95;;
48647;SDS011;34437;-33.956;151.076;2023-02-04T08:10:47;1.00;;;0.88;;
48647;SDS011;34437;-33.956;151.076;2023-02-04T08:13:10;1.23;;;0.90;;
48647;SDS011;34437;-33.956;151.076;2023-02-04T08:15:32;1.90;;;0.70;;
48647;SDS011;34437;-33.956;151.076;2023-02-04T08:17:55;2.03;;;0.90;;
48647;SDS011;34437;-33.956;151.076;2023-02-04T08:20:17;1.15;;;0.70;;
48647;SDS011;34437;-33.956;151.076;2023-02-04T08:22:40;4.15;;;0.95;;
48647;SDS011;34437;-33.956;151.076;2023-02-04T08:25:02;0.88;;;0.57;;
48647;SDS011;34437;-33.956;151.076;2023-02-04T08:27:25;0.88;;;0.60;;
48647;SDS011;34437;-33.956;151.076;2023-02-04T08:29:47;1.50;;;0.70;;
48647;SDS011;34437;-33.956;151.076;2023-02-04T08:32:10;2.28;;;0.80;;
48647;SDS011;34437;-33.956;151.076;2023-02-04T08:34:36;1.40;;;0.40;;
48647;SDS011;34437;-33.956;151.076;2023-02-04T08:36:58;0.95;;;0.70;;
48647;SDS011;34437;-33.956;151.076;2023-02-04T08:39:20;1.92;;;0.50;;
48647;SDS011;34437;-33.956;151.076;2023-02-04T08:41:43;0.93;;;0.50;;
48647;SDS011;34437;-33.956;151.076;2023-02-04T08:44:05;1.15;;;0.60;;
48647;SDS011;34437;-33.956;151.076;2023-02-04T08:46:28;1.83;;;0.68;;
48647;SDS011;34437;-33.956;151.076;2023-02-04T08:48:50;2.20;;;0.93;;
48647;SDS011;34437;-33.956;151.076;2023-02-04T08:51:13;2.40;;;0.60;;
48647;SDS011;34437;-33.956;151.076;2023-02-04T08:56:00;1.05;;;0.68;;
48647;SDS011;34437;-33.956;151.076;2023-02-04T08:58:22;3.45;;;0.60;;
48647;SDS011;34437;-33.956;151.076;2023-02-04T09:00:45;0.88;;;0.50;;
48647;SDS011;34437;-33.956;151.076;2023-02-04T09:03:07;1.73;;;0.77;;
48647;SDS011;34437;-33.956;151.076;2023-02-04T09:05:30;1.30;;;0.57;;
48647;SDS011;34437;-33.956;151.076;2023-02-04T09:07:52;1.50;;;0.50;;
48647;SDS011;34437;-33.956;151.076;2023-02-04T09:10:14;1.90;;;0.55;;
48647;SDS011;34437;-33.956;151.076;2023-02-04T09:12:37;1.00;;;0.60;;
48647;SDS011;34437;-33.956;151.076;2023-02-04T09:15:00;0.95;;;0.57;;
48647;SDS011;34437;-33.956;151.076;2023-02-04T09:17:22;0.98;;;0.50;;
48647;SDS011;34437;-33.956;151.076;2023-02-04T09:19:45;1.17;;;0.60;;
48647;SDS011;34437;-33.956;151.076;2023-02-04T09:22:07;1.63;;;0.77;;
48647;SDS011;34437;-33.956;151.076;2023-02-04T09:24:29;1.65;;;0.65;;
48647;SDS011;34437;-33.956;151.076;2023-02-04T09:26:52;1.63;;;0.55;;
48647;SDS011;34437;-33.956;151.076;2023-02-04T09:29:14;0.82;;;0.60;;
48647;SDS011;34437;-33.956;151.076;2023-02-04T09:31:37;1.02;;;0.55;;
48647;SDS011;34437;-33.956;151.076;2023-02-04T09:33:59;1.30;;;0.40;;
48647;SDS011;34437;-33.956;151.076;2023-02-04T09:36:22;1.52;;;0.63;;
48647;SDS011;34437;-33.956;151.076;2023-02-04T09:38:48;0.82;;;0.40;;
48647;SDS011;34437;-33.956;151.076;2023-02-04T09:41:10;1.20;;;0.90;;
48647;SDS011;34437;-33.956;151.076;2023-02-04T09:43:34;1.10;;;0.60;;
48647;SDS011;34437;-33.956;151.076;2023-02-04T09:46:01;0.65;;;0.60;;
48647;SDS011;34437;-33.956;151.076;2023-02-04T09:48:23;0.57;;;0.47;;
48647;SDS011;34437;-33.956;151.076;2023-02-04T09:50:46;0.40;;;0.40;;
48647;SDS011;34437;-33.956;151.076;2023-02-04T09:53:11;0.73;;;0.47;;
48647;SDS011;34437;-33.956;151.076;2023-02-04T09:55:39;0.82;;;0.50;;
48647;SDS011;34437;-33.956;151.076;2023-02-04T09:58:04;1.10;;;0.57;;
48647;SDS011;34437;-33.956;151.076;2023-02-04T10:00:33;0.40;;;0.35;;
48647;SDS011;34437;-33.956;151.076;2023-02-04T10:02:59;0.40;;;0.30;;
48647;SDS011;34437;-33.956;151.076;2023-02-04T10:05:32;0.50;;;0.30;;
48647;SDS011;34437;-33.956;151.076;2023-02-04T10:07:56;0.40;;;0.40;;
48647;SDS011;34437;-33.956;151.076;2023-02-04T10:10:20;0.32;;;0.32;;
48647;SDS011;34437;-33.956;151.076;2023-02-04T10:12:45;0.35;;;0.30;;
48647;SDS011;34437;-33.956;151.076;2023-02-04T10:15:14;0.45;;;0.45;;
48647;SDS011;34437;-33.956;151.076;2023-02-04T10:17:40;0.65;;;0.40;;
48647;SDS011;34437;-33.956;151.076;2023-02-04T10:20:03;0.35;;;0.28;;
48647;SDS011;34437;-33.956;151.076;2023-02-04T10:22:26;0.30;;;0.30;;
48647;SDS011;34437;-33.956;151.076;2023-02-04T10:24:49;0.47;;;0.30;;
48647;SDS011;34437;-33.956;151.076;2023-02-04T10:27:11;0.30;;;0.30;;
48647;SDS011;34437;-33.956;151.076;2023-02-04T10:29:38;0.55;;;0.30;;
48647;SDS011;34437;-33.956;151.076;2023-02-04T10:32:02;0.15;;;0.15;;
48647;SDS011;34437;-33.956;151.076;2023-02-04T10:34:32;0.20;;;0.20;;
48647;SDS011;34437;-33.956;151.076;2023-02-04T10:36:58;0.45;;;0.30;;
48647;SDS011;34437;-33.956;151.076;2023-02-04T10:39:21;0.37;;;0.30;;
48647;SDS011;34437;-33.956;151.076;2023-02-04T10:41:52;0.28;;;0.20;;
48647;SDS011;34437;-33.956;151.076;2023-02-04T10:46:59;0.30;;;0.30;;
48647;SDS011;34437;-33.956;151.076;2023-02-04T10:49:23;0.75;;;0.30;;
48647;SDS011;34437;-33.956;151.076;2023-02-04T10:51:45;0.30;;;0.30;;
48647;SDS011;34437;-33.956;151.076;2023-02-04T10:54:10;0.40;;;0.22;;
48647;SDS011;34437;-33.956;151.076;2023-02-04T10:56:52;0.68;;;0.40;;
48647;SDS011;34437;-33.956;151.076;2023-02-04T10:59:19;0.93;;;0.35;;
48647;SDS011;34437;-33.956;151.076;2023-02-04T11:01:46;0.40;;;0.20;;
48647;SDS011;34437;-33.956;151.076;2023-02-04T11:04:09;0.20;;;0.20;;
48647;SDS011;34437;-33.956;151.076;2023-02-04T11:06:31;0.30;;;0.30;;
48647;SDS011;34437;-33.956;151.076;2023-02-04T11:08:54;0.35;;;0.30;;
48647;SDS011;34437;-33.956;151.076;2023-02-04T11:11:22;0.28;;;0.28;;
48647;SDS011;34437;-33.956;151.076;2023-02-04T11:19:02;0.20;;;0.20;;
48647;SDS011;34437;-33.956;151.076;2023-02-04T11:21:48;0.57;;;0.30;;
48647;SDS011;34437;-33.956;151.076;2023-02-04T11:26:39;0.30;;;0.30;;
48647;SDS011;34437;-33.956;151.076;2023-02-04T11:32:00;0.35;;;0.32;;
48647;SDS011;34437;-33.956;151.076;2023-02-04T11:34:25;0.43;;;0.32;;
48647;SDS011;34437;-33.956;151.076;2023-02-04T11:39:39;0.40;;;0.32;;
48647;SDS011;34437;-33.956;151.076;2023-02-04T11:42:03;0.75;;;0.30;;
48647;SDS011;34437;-33.956;151.076;2023-02-04T11:44:26;0.70;;;0.35;;
48647;SDS011;34437;-33.956;151.076;2023-02-04T11:46:53;2.28;;;0.70;;
48647;SDS011;34437;-33.956;151.076;2023-02-04T11:49:18;1.75;;;0.40;;
48647;SDS011;34437;-33.956;151.076;2023-02-04T11:51:41;2.65;;;0.57;;
48647;SDS011;34437;-33.956;151.076;2023-02-04T11:54:07;3.83;;;1.20;;
48647;SDS011;34437;-33.956;151.076;2023-02-04T11:56:29;2.25;;;0.47;;
48647;SDS011;34437;-33.956;151.076;2023-02-04T11:58:54;2.08;;;0.60;;
48647;SDS011;34437;-33.956;151.076;2023-02-04T12:03:45;10.02;;;1.48;;
48647;SDS011;34437;-33.956;151.076;2023-02-04T12:06:09;2.00;;;0.70;;
48647;SDS011;34437;-33.956;151.076;2023-02-04T12:08:46;6.32;;;1.10;;
48647;SDS011;34437;-33.956;151.076;2023-02-04T12:11:09;3.03;;;0.73;;
48647;SDS011;34437;-33.956;151.076;2023-02-04T12:13:47;4.03;;;0.85;;
48647;SDS011;34437;-33.956;151.076;2023-02-04T12:16:12;5.20;;;1.00;;
48647;SDS011;34437;-33.956;151.076;2023-02-04T12:18:34;6.40;;;1.02;;
48647;SDS011;34437;-33.956;151.076;2023-02-04T12:20:57;2.75;;;0.77;;
48647;SDS011;34437;-33.956;151.076;2023-02-04T12:23:20;9.18;;;1.25;;
48647;SDS011;34437;-33.956;151.076;2023-02-04T12:25:43;13.30;;;1.30;;
48647;SDS011;34437;-33.956;151.076;2023-02-04T12:28:06;9.63;;;1.33;;
48647;SDS011;34437;-33.956;151.076;2023-02-04T12:30:28;7.05;;;0.90;;
48647;SDS011;34437;-33.956;151.076;2023-02-04T12:32:51;17.80;;;1.42;;
48647;SDS011;34437;-33.956;151.076;2023-02-04T12:35:13;6.47;;;1.70;;
48647;SDS011;34437;-33.956;151.076;2023-02-04T12:37:36;4.55;;;1.08;;
48647;SDS011;34437;-33.956;151.076;2023-02-04T12:39:58;2.97;;;0.80;;
48647;SDS011;34437;-33.956;151.076;2023-02-04T12:42:20;5.35;;;0.70;;
48647;SDS011;34437;-33.956;151.076;2023-02-04T12:44:43;4.43;;;0.68;;
48647;SDS011;34437;-33.956;151.076;2023-02-04T12:47:05;3.80;;;0.68;;
48647;SDS011;34437;-33.956;151.076;2023-02-04T12:49:27;3.72;;;0.82;;
48647;SDS011;34437;-33.956;151.076;2023-02-04T12:51:50;2.28;;;1.08;;
48647;SDS011;34437;-33.956;151.076;2023-02-04T12:54:12;6.38;;;0.70;;
48647;SDS011;34437;-33.956;151.076;2023-02-04T12:56:35;4.75;;;0.85;;
48647;SDS011;34437;-33.956;151.076;2023-02-04T12:58:57;6.47;;;1.35;;
48647;SDS011;34437;-33.956;151.076;2023-02-04T13:01:19;3.30;;;0.55;;
48647;SDS011;34437;-33.956;151.076;2023-02-04T13:03:42;4.43;;;0.88;;
48647;SDS011;34437;-33.956;151.076;2023-02-04T13:06:04;6.72;;;1.10;;
48647;SDS011;34437;-33.956;151.076;2023-02-04T13:08:27;1.23;;;0.50;;
48647;SDS011;34437;-33.956;151.076;2023-02-04T13:10:49;5.05;;;0.85;;
48647;SDS011;34437;-33.956;151.076;2023-02-04T13:13:12;4.10;;;0.63;;
48647;SDS011;34437;-33.956;151.076;2023-02-04T13:15:34;3.22;;;0.60;;
48647;SDS011;34437;-33.956;151.076;2023-02-04T13:17:56;1.45;;;0.32;;
48647;SDS011;34437;-33.956;151.076;2023-02-04T13:20:19;3.60;;;0.50;;
48647;SDS011;34437;-33.956;151.076;2023-02-04T13:22:41;1.17;;;0.43;;
48647;SDS011;34437;-33.956;151.076;2023-02-04T13:25:04;5.68;;;0.60;;
48647;SDS011;34437;-33.956;151.076;2023-02-04T13:27:26;0.80;;;0.30;;
48647;SDS011;34437;-33.956;151.076;2023-02-04T13:29:49;2.53;;;0.60;;
48647;SDS011;34437;-33.956;151.076;2023-02-04T13:32:12;1.55;;;0.40;;
48647;SDS011;34437;-33.956;151.076;2023-02-04T13:34:34;3.22;;;0.57;;
48647;SDS011;34437;-33.956;151.076;2023-02-04T13:36:56;0.43;;;0.43;;
48647;SDS011;34437;-33.956;151.076;2023-02-04T13:39:19;0.45;;;0.30;;
48647;SDS011;34437;-33.956;151.076;2023-02-04T13:41:41;1.75;;;0.43;;
48647;SDS011;34437;-33.956;151.076;2023-02-04T13:44:04;1.75;;;0.60;;
48647;SDS011;34437;-33.956;151.076;2023-02-04T13:46:27;0.35;;;0.35;;
48647;SDS011;34437;-33.956;151.076;2023-02-04T13:48:49;1.00;;;0.30;;
48647;SDS011;34437;-33.956;151.076;2023-02-04T13:51:11;0.85;;;0.52;;
48647;SDS011;34437;-33.956;151.076;2023-02-04T13:53:34;1.27;;;0.45;;
48647;SDS011;34437;-33.956;151.076;2023-02-04T13:55:56;3.17;;;0.50;;
48647;SDS011;34437;-33.956;151.076;2023-02-04T13:58:19;0.95;;;0.30;;
48647;SDS011;34437;-33.956;151.076;2023-02-04T14:00:41;2.58;;;0.70;;
48647;SDS011;34437;-33.956;151.076;2023-02-04T14:03:04;1.50;;;0.73;;
48647;SDS011;34437;-33.956;151.076;2023-02-04T14:05:26;2.47;;;0.45;;
48647;SDS011;34437;-33.956;151.076;2023-02-04T14:07:49;1.50;;;0.40;;
48647;SDS011;34437;-33.956;151.076;2023-02-04T14:10:11;9.45;;;1.00;;
48647;SDS011;34437;-33.956;151.076;2023-02-04T14:12:33;1.05;;;0.35;;
48647;SDS011;34437;-33.956;151.076;2023-02-04T14:14:56;0.93;;;0.32;;